createdAt,value
2018-08-01T06:58:38.796Z,0
2018-08-01T06:59:19.571Z,0
2018-08-01T07:00:00.313Z,0
2018-08-01T07:00:41.173Z,0
2018-08-01T07:01:21.941Z,0
2018-08-01T07:02:02.689Z,0
2018-08-01T07:02:43.435Z,0
2018-08-01T07:03:24.202Z,0
2018-08-01T07:04:05.061Z,0
2018-08-01T07:04:45.877Z,0
2018-08-01T07:05:26.802Z,0
2018-08-01T07:06:07.526Z,0
2018-08-01T07:06:48.345Z,0
2018-08-01T07:07:29.146Z,0
2018-08-01T07:08:09.910Z,0
2018-08-01T07:08:50.762Z,0
2018-08-01T07:09:31.544Z,0
2018-08-01T07:10:12.333Z,0
2018-08-01T07:10:53.373Z,0
2018-08-01T07:11:34.184Z,0
2018-08-01T07:13:34.074Z,30
2018-08-01T07:14:14.895Z,30
2018-08-01T07:14:55.679Z,30
2018-08-01T07:15:36.904Z,30
2018-08-01T07:16:17.714Z,30
2018-08-01T07:16:58.552Z,30
2018-08-01T07:17:40.354Z,30
2018-08-01T07:18:21.137Z,30
2018-08-01T07:19:01.943Z,30
2018-08-01T07:19:42.833Z,30
2018-08-01T07:20:23.591Z,35
2018-08-01T07:21:04.321Z,35
2018-08-01T07:21:45.075Z,35
2018-08-01T07:22:25.944Z,35
2018-08-01T07:23:06.712Z,40
2018-08-01T07:23:47.471Z,40
2018-08-01T07:24:28.235Z,40
2018-08-01T07:25:09.134Z,40
2018-08-01T07:25:50.002Z,40
2018-08-01T07:26:30.741Z,45
2018-08-01T07:27:11.488Z,50
2018-08-01T07:27:52.342Z,50
2018-08-01T07:28:33.052Z,50
2018-08-01T07:29:13.891Z,50
2018-08-01T07:29:54.709Z,55
2018-08-01T07:30:35.559Z,50
2018-08-01T07:31:16.610Z,55
2018-08-01T07:31:57.438Z,55
2018-08-01T07:32:38.279Z,55
2018-08-01T07:33:19.075Z,60
2018-08-01T07:33:59.871Z,60
2018-08-01T07:34:40.627Z,60
2018-08-01T07:35:21.405Z,65
2018-08-01T07:36:02.392Z,65
2018-08-01T07:36:43.253Z,65
2018-08-01T07:37:24.074Z,65
2018-08-01T07:38:04.923Z,65
2018-08-01T07:38:45.690Z,65
2018-08-01T07:39:26.459Z,65
2018-08-01T07:40:07.288Z,65
2018-08-01T07:40:48.085Z,65
2018-08-01T07:41:28.873Z,70
2018-08-01T07:42:09.714Z,70
2018-08-01T07:42:50.525Z,75
2018-08-01T07:43:31.368Z,75
2018-08-01T07:44:12.126Z,75
2018-08-01T07:44:52.910Z,75
2018-08-01T07:45:33.827Z,75
2018-08-01T07:46:14.899Z,75
2018-08-01T07:46:55.715Z,75
2018-08-01T07:47:36.533Z,75
2018-08-01T07:48:17.292Z,30
2018-08-01T07:48:58.221Z,50
2018-08-01T07:49:39.090Z,70
2018-08-01T07:50:19.861Z,75
2018-08-01T07:51:00.648Z,75
2018-08-01T07:51:41.413Z,80
2018-08-01T07:52:22.204Z,80
2018-08-01T07:53:03.052Z,80
2018-08-01T07:53:44.016Z,80
2018-08-01T07:54:24.836Z,75
2018-08-01T07:55:05.639Z,75
2018-08-01T07:55:46.470Z,75
2018-08-01T07:56:27.295Z,30
2018-08-01T07:57:08.127Z,55
2018-08-01T07:57:48.876Z,75
2018-08-01T07:58:29.724Z,75
2018-08-01T07:59:10.551Z,70
2018-08-01T07:59:51.331Z,70
2018-08-01T08:00:32.098Z,70
2018-08-01T08:01:12.819Z,70
2018-08-01T08:01:53.626Z,70
2018-08-01T08:02:34.468Z,70
2018-08-01T08:03:15.387Z,70
2018-08-01T08:03:56.143Z,75
2018-08-01T08:04:36.926Z,75
2018-08-01T08:05:17.723Z,70
2018-08-01T08:05:58.563Z,45
2018-08-01T08:06:39.379Z,70
2018-08-01T08:07:20.117Z,75
2018-08-01T08:08:00.892Z,75
2018-08-01T08:08:41.740Z,85
2018-08-01T08:09:22.571Z,85
2018-08-01T08:10:03.370Z,85
2018-08-01T08:10:44.116Z,85
2018-08-01T08:11:24.926Z,80
2018-08-01T08:12:05.751Z,80
2018-08-01T08:12:46.548Z,80
2018-08-01T08:13:27.280Z,80
2018-08-01T08:14:08.120Z,85
2018-08-01T08:14:48.950Z,85
2018-08-01T08:15:29.783Z,85
2018-08-01T08:16:10.573Z,85
2018-08-01T08:16:51.397Z,90
2018-08-01T08:17:32.194Z,85
2018-08-01T08:18:13.039Z,85
2018-08-01T08:18:53.915Z,85
2018-08-01T08:19:34.663Z,85
2018-08-01T08:20:15.431Z,90
2018-08-01T08:20:56.254Z,90
2018-08-01T08:21:37.068Z,85
2018-08-01T08:22:17.944Z,55
2018-08-01T08:22:58.749Z,85
2018-08-01T08:23:39.499Z,100
2018-08-01T08:24:20.378Z,100
2018-08-01T08:25:01.164Z,95
2018-08-01T08:25:41.921Z,50
2018-08-01T08:26:22.624Z,90
2018-08-01T08:27:03.467Z,55
2018-08-01T08:27:44.353Z,45
2018-08-01T08:28:25.128Z,110
2018-08-01T08:29:05.915Z,115
2018-08-01T08:29:46.865Z,115
2018-08-01T08:30:27.624Z,110
2018-08-01T08:31:08.460Z,105
2018-08-01T08:31:49.289Z,90
2018-08-01T08:32:30.063Z,85
2018-08-01T08:33:10.903Z,85
2018-08-01T08:33:51.685Z,80
2018-08-01T08:34:32.439Z,80
2018-08-01T08:35:13.221Z,80
2018-08-01T08:35:54.003Z,80
2018-08-01T08:36:34.976Z,75
2018-08-01T08:37:15.831Z,75
2018-08-01T08:37:56.648Z,70
2018-08-01T08:38:37.496Z,60
2018-08-01T08:39:18.294Z,35
2018-08-01T08:39:59.085Z,35
2018-08-01T08:40:39.910Z,75
2018-08-01T08:41:20.740Z,80
2018-08-01T08:42:01.528Z,85
2018-08-01T08:42:42.325Z,75
2018-08-01T08:43:23.142Z,65
2018-08-01T08:44:04.025Z,50
2018-08-01T08:44:44.790Z,50
2018-08-01T08:45:25.828Z,45
2018-08-01T08:46:06.568Z,45
2018-08-01T08:46:47.358Z,45
2018-08-01T08:47:28.194Z,50
2018-08-01T08:48:09.037Z,50
2018-08-01T08:48:49.853Z,45
2018-08-01T08:49:30.610Z,45
2018-08-01T08:50:11.420Z,45
2018-08-01T08:50:52.283Z,45
2018-08-01T08:51:33.198Z,45
2018-08-01T08:52:13.951Z,45
2018-08-01T08:52:54.705Z,45
2018-08-01T08:53:35.498Z,45
2018-08-01T08:54:16.302Z,45
2018-08-01T08:54:57.162Z,45
2018-08-01T08:55:37.953Z,45
2018-08-01T08:56:18.790Z,45
2018-08-01T08:56:59.561Z,45
2018-08-01T08:57:40.340Z,45
2018-08-01T08:58:21.205Z,45
2018-08-01T08:59:01.996Z,45
2018-08-01T08:59:42.757Z,45
2018-08-01T09:00:23.733Z,40
2018-08-01T09:01:04.353Z,40
2018-08-01T09:01:45.204Z,40
2018-08-01T09:02:25.994Z,40
2018-08-01T09:03:06.753Z,40
2018-08-01T09:03:47.618Z,40
2018-08-01T09:04:28.417Z,40
2018-08-01T09:05:09.161Z,40
2018-08-01T09:05:49.955Z,40
2018-08-01T09:06:30.691Z,40
2018-08-01T09:07:11.634Z,40
2018-08-01T09:07:52.371Z,40
2018-08-01T09:08:33.141Z,35
2018-08-01T09:09:13.974Z,35
2018-08-01T09:09:54.795Z,35
2018-08-01T09:10:35.597Z,35
2018-08-01T09:11:16.381Z,35
2018-08-01T09:11:57.157Z,35
2018-08-01T09:12:37.965Z,35
2018-08-01T09:13:18.803Z,35
2018-08-01T09:13:59.584Z,35
2018-08-01T09:14:40.413Z,30
2018-08-01T09:15:21.216Z,30
2018-08-01T09:16:01.943Z,30
2018-08-01T09:16:42.783Z,30
2018-08-01T09:17:23.578Z,30
2018-08-01T09:18:04.313Z,30
2018-08-01T09:18:45.097Z,30
2018-08-01T09:19:25.851Z,30
2018-08-01T09:20:06.688Z,30
2018-08-01T09:20:47.526Z,30
2018-08-01T09:21:28.350Z,30
2018-08-01T09:22:09.180Z,30
2018-08-01T09:22:49.905Z,30
2018-08-01T09:23:30.676Z,30
2018-08-01T09:24:11.453Z,30
2018-08-01T09:24:52.382Z,30
2018-08-01T09:25:33.076Z,30
2018-08-01T09:26:13.889Z,30
2018-08-01T09:26:54.672Z,30
2018-08-01T09:27:35.522Z,30
2018-08-01T09:28:16.330Z,30
2018-08-01T09:28:57.097Z,30
2018-08-01T09:29:37.831Z,30
2018-08-01T09:30:18.617Z,30
2018-08-01T09:30:59.409Z,30
2018-08-01T09:31:40.235Z,30
2018-08-01T09:32:21.025Z,30
2018-08-01T09:33:01.854Z,25
2018-08-01T09:33:42.597Z,25
2018-08-01T09:34:23.428Z,25
2018-08-01T09:35:04.221Z,25
2018-08-01T09:35:44.987Z,25
2018-08-01T09:36:25.796Z,25
2018-08-01T09:37:06.564Z,25
2018-08-01T09:37:47.367Z,25
2018-08-01T09:38:28.137Z,25
2018-08-01T09:39:08.913Z,25
2018-08-01T09:39:49.732Z,25
2018-08-01T09:40:30.603Z,25
2018-08-01T09:41:11.476Z,25
2018-08-01T09:41:52.257Z,25
2018-08-01T09:42:33.045Z,25
2018-08-01T09:43:13.881Z,25
2018-08-01T09:43:54.676Z,25
2018-08-01T09:44:35.449Z,25
2018-08-01T09:45:16.189Z,25
2018-08-01T09:45:56.976Z,25
2018-08-01T09:46:37.773Z,25
2018-08-01T09:47:18.604Z,25
2018-08-01T09:47:59.419Z,25
2018-08-01T09:48:40.173Z,25
2018-08-01T09:49:20.929Z,25
2018-08-01T09:50:01.676Z,25
2018-08-01T09:50:42.481Z,25
2018-08-01T09:51:23.322Z,25
2018-08-01T09:52:04.056Z,25
2018-08-01T09:52:44.917Z,25
2018-08-01T09:53:25.923Z,25
2018-08-01T09:54:06.972Z,25
2018-08-01T09:54:47.789Z,25
2018-08-01T09:55:28.704Z,25
2018-08-01T09:56:08.981Z,25
2018-08-01T09:56:49.757Z,25
2018-08-01T09:57:30.567Z,25
2018-08-01T09:58:11.383Z,25
2018-08-01T09:58:52.213Z,25
2018-08-01T09:59:32.973Z,25
2018-08-01T10:00:13.799Z,25
2018-08-01T10:00:54.634Z,25
2018-08-01T10:01:35.369Z,25
2018-08-01T10:02:16.169Z,25
2018-08-01T10:02:56.957Z,25
2018-08-01T10:03:37.754Z,25
2018-08-01T10:04:18.660Z,25
2018-08-01T10:04:59.458Z,25
2018-08-01T10:05:40.323Z,25
2018-08-01T10:06:21.141Z,25
2018-08-01T10:07:01.928Z,25
2018-08-01T10:07:42.725Z,25
2018-08-01T10:08:23.527Z,25
2018-08-01T10:09:04.355Z,25
2018-08-01T10:09:45.175Z,25
2018-08-01T10:10:25.981Z,25
2018-08-01T10:11:06.873Z,20
2018-08-01T10:11:47.713Z,20
2018-08-01T10:12:28.455Z,20
2018-08-01T10:13:09.229Z,20
2018-08-01T10:13:50.068Z,20
2018-08-01T10:14:30.859Z,20
2018-08-01T10:15:11.607Z,20
2018-08-01T10:15:52.348Z,20
2018-08-01T10:16:33.110Z,20
2018-08-01T10:17:13.963Z,20
2018-08-01T10:17:54.689Z,20
2018-08-01T10:18:35.435Z,20
2018-08-01T10:19:16.310Z,20
2018-08-01T10:19:57.202Z,20
2018-08-01T10:20:38.030Z,20
2018-08-01T10:21:18.809Z,20
2018-08-01T10:21:59.543Z,20
2018-08-01T10:22:40.300Z,20
2018-08-01T10:23:21.093Z,20
2018-08-01T10:24:01.947Z,20
2018-08-01T10:24:42.770Z,20
2018-08-01T10:25:23.566Z,20
2018-08-01T10:26:04.336Z,20
2018-08-01T10:26:45.194Z,20
2018-08-01T10:27:26.033Z,20
2018-08-01T10:28:06.769Z,20
2018-08-01T10:28:47.537Z,20
2018-08-01T10:29:28.299Z,20
2018-08-01T10:30:09.120Z,20
2018-08-01T10:30:49.886Z,20
2018-08-01T10:31:30.621Z,20
2018-08-01T10:32:11.467Z,20
2018-08-01T10:32:52.270Z,20
2018-08-01T10:33:33.103Z,20
2018-08-01T10:34:13.866Z,20
2018-08-01T10:34:54.614Z,20
2018-08-01T10:35:35.488Z,20
2018-08-01T10:36:16.176Z,20
2018-08-01T10:36:56.906Z,20
2018-08-01T10:37:37.686Z,20
2018-08-01T10:38:18.484Z,20
2018-08-01T10:38:59.318Z,20
2018-08-01T10:39:40.167Z,20
2018-08-01T10:40:20.961Z,20
2018-08-01T10:41:01.736Z,20
2018-08-01T10:41:42.456Z,20
2018-08-01T10:42:23.273Z,20
2018-08-01T10:43:04.112Z,20
2018-08-01T10:43:44.872Z,20
2018-08-01T10:44:25.632Z,20
2018-08-01T10:45:06.488Z,20
2018-08-01T10:45:47.277Z,20
2018-08-01T10:46:28.114Z,20
2018-08-01T10:47:08.876Z,20
2018-08-01T10:47:49.666Z,20
2018-08-01T10:48:30.556Z,20
2018-08-01T10:49:11.340Z,20
2018-08-01T10:49:52.086Z,20
2018-08-01T10:50:32.868Z,20
2018-08-01T10:51:13.648Z,20
2018-08-01T10:51:54.535Z,20
2018-08-01T10:52:35.334Z,20
2018-08-01T10:53:16.135Z,20
2018-08-01T10:53:57.015Z,20
2018-08-01T10:54:37.783Z,20
2018-08-01T10:55:18.644Z,20
2018-08-01T10:55:59.424Z,20
2018-08-01T10:56:40.253Z,20
2018-08-01T10:57:20.982Z,20
2018-08-01T10:58:01.863Z,20
2018-08-01T10:58:42.693Z,20
2018-08-01T10:59:23.603Z,20
2018-08-01T11:00:04.344Z,20
2018-08-01T11:00:45.106Z,20
2018-08-01T11:01:26.005Z,20
2018-08-01T11:02:06.762Z,20
2018-08-01T11:02:47.522Z,20
2018-08-01T11:03:28.308Z,20
2018-08-01T11:04:09.077Z,20
2018-08-01T11:04:50.089Z,20
2018-08-01T11:05:30.917Z,20
2018-08-01T11:06:11.726Z,20
2018-08-01T11:06:52.484Z,20
2018-08-01T11:07:33.256Z,20
2018-08-01T11:08:14.040Z,20
2018-08-01T11:08:54.840Z,20
2018-08-01T11:09:35.676Z,20
2018-08-01T11:10:16.441Z,20
2018-08-01T11:10:57.209Z,20
2018-08-01T11:11:38.002Z,20
2018-08-01T11:12:18.885Z,20
2018-08-01T11:12:59.680Z,20
2018-08-01T11:13:40.481Z,20
2018-08-01T11:14:21.197Z,20
2018-08-01T11:15:01.996Z,20
2018-08-01T11:15:42.834Z,20
2018-08-01T11:16:23.604Z,20
2018-08-01T11:17:04.452Z,20
2018-08-01T11:17:45.245Z,20
2018-08-01T11:18:26.046Z,20
2018-08-01T11:19:06.842Z,20
2018-08-01T11:19:47.648Z,20
2018-08-01T11:20:28.345Z,20
2018-08-01T11:21:09.195Z,20
2018-08-01T11:21:49.963Z,20
2018-08-01T11:22:30.856Z,20
2018-08-01T11:23:11.618Z,20
2018-08-01T11:23:52.396Z,20
2018-08-01T11:24:33.243Z,20
2018-08-01T11:25:14.052Z,20
2018-08-01T11:25:54.902Z,20
2018-08-01T11:26:35.689Z,20
2018-08-01T11:27:16.461Z,20
2018-08-01T11:27:57.302Z,20
2018-08-01T11:28:38.079Z,20
2018-08-01T11:29:18.827Z,20
2018-08-01T11:29:59.613Z,20
2018-08-01T11:30:40.414Z,20
2018-08-01T11:31:21.284Z,20
2018-08-01T11:32:02.110Z,20
2018-08-01T11:32:42.900Z,20
2018-08-01T11:33:23.636Z,20
2018-08-01T11:34:04.382Z,20
2018-08-01T11:34:45.202Z,20
2018-08-01T11:35:26.070Z,20
2018-08-01T11:36:06.781Z,20
2018-08-01T11:36:47.542Z,20
2018-08-01T11:37:28.347Z,20
2018-08-01T11:38:09.170Z,20
2018-08-01T11:38:50.001Z,20
2018-08-01T11:39:30.854Z,20
2018-08-01T11:40:11.622Z,20
2018-08-01T11:40:52.449Z,20
2018-08-01T11:41:33.204Z,20
2018-08-01T11:42:13.940Z,15
2018-08-01T11:42:54.746Z,20
2018-08-01T11:43:35.514Z,20
2018-08-01T11:44:16.354Z,20
2018-08-01T11:44:57.126Z,20
2018-08-01T11:45:37.917Z,20
2018-08-01T11:46:18.711Z,20
2018-08-01T11:46:59.538Z,20
2018-08-01T11:47:40.460Z,15
2018-08-01T11:48:21.180Z,20
2018-08-01T11:49:01.977Z,15
2018-08-01T11:49:42.722Z,15
2018-08-01T11:50:23.562Z,15
2018-08-01T11:51:04.388Z,15
2018-08-01T11:51:45.276Z,15
2018-08-01T11:52:26.046Z,15
2018-08-01T11:53:06.809Z,15
2018-08-01T11:53:47.668Z,15
2018-08-01T11:54:28.454Z,15
2018-08-01T11:55:09.162Z,15
2018-08-01T11:55:49.981Z,20
2018-08-01T11:56:30.810Z,20
2018-08-01T11:57:11.627Z,15
2018-08-01T11:57:52.351Z,20
2018-08-01T11:58:33.118Z,20
2018-08-01T11:59:13.959Z,15
2018-08-01T11:59:54.794Z,15
2018-08-01T12:00:35.595Z,15
2018-08-01T12:01:16.292Z,15
2018-08-01T12:01:57.120Z,15
2018-08-01T12:02:37.985Z,15
2018-08-01T12:03:18.734Z,20
2018-08-01T12:03:59.522Z,20
2018-08-01T12:04:40.262Z,15
2018-08-01T12:05:21.096Z,15
2018-08-01T12:06:01.910Z,15
2018-08-01T12:06:42.748Z,20
2018-08-01T12:07:23.536Z,20
2018-08-01T12:08:04.306Z,15
2018-08-01T12:08:45.085Z,15
2018-08-01T12:09:25.898Z,15
2018-08-01T12:10:06.697Z,15
2018-08-01T12:10:47.481Z,15
2018-08-01T12:11:28.236Z,15
2018-08-01T12:12:09.037Z,15
2018-08-01T12:12:49.932Z,20
2018-08-01T12:13:30.774Z,15
2018-08-01T12:14:11.450Z,15
2018-08-01T12:14:52.214Z,15
2018-08-01T12:15:32.958Z,15
2018-08-01T12:16:13.803Z,15
2018-08-01T12:16:54.671Z,15
2018-08-01T12:17:35.517Z,15
2018-08-01T12:18:16.280Z,15
2018-08-01T12:18:57.027Z,15
2018-08-01T12:19:37.828Z,15
2018-08-01T12:20:18.699Z,15
2018-08-01T12:20:59.428Z,15
2018-08-01T12:21:40.371Z,15
2018-08-01T12:22:21.059Z,15
2018-08-01T12:23:01.964Z,15
2018-08-01T12:23:42.799Z,15
2018-08-01T12:24:23.740Z,15
2018-08-01T12:25:04.490Z,15
2018-08-01T12:25:45.316Z,15
2018-08-01T12:26:26.088Z,15
2018-08-01T12:27:06.904Z,15
2018-08-01T12:27:47.718Z,15
2018-08-01T12:28:28.462Z,15
2018-08-01T12:29:09.346Z,15
2018-08-01T12:29:50.243Z,15
2018-08-01T12:30:31.118Z,15
2018-08-01T12:31:11.916Z,15
2018-08-01T12:31:52.658Z,15
2018-08-01T12:32:33.463Z,15
2018-08-01T12:33:14.252Z,15
2018-08-01T12:33:54.998Z,15
2018-08-01T12:34:35.742Z,15
2018-08-01T12:35:16.495Z,15
2018-08-01T12:35:57.333Z,15
2018-08-01T12:36:38.108Z,15
2018-08-01T12:37:18.892Z,15
2018-08-01T12:37:59.712Z,15
2018-08-01T12:38:40.528Z,15
2018-08-01T12:39:21.419Z,15
2018-08-01T12:40:02.202Z,15
2018-08-01T12:40:42.976Z,15
2018-08-01T12:41:23.724Z,15
2018-08-01T12:42:04.641Z,15
2018-08-01T12:42:45.378Z,15
2018-08-01T12:43:26.263Z,15
2018-08-01T12:44:07.049Z,15
2018-08-01T12:44:47.800Z,15
2018-08-01T12:45:28.579Z,15
2018-08-01T12:46:09.435Z,15
2018-08-01T12:46:50.196Z,15
2018-08-01T12:47:30.954Z,15
2018-08-01T12:48:11.698Z,15
2018-08-01T12:48:52.517Z,15
2018-08-01T12:49:33.273Z,15
2018-08-01T12:50:14.057Z,15
2018-08-01T12:50:54.887Z,15
2018-08-01T12:51:35.697Z,15
2018-08-01T12:52:16.506Z,15
2018-08-01T12:52:57.310Z,15
2018-08-01T12:53:38.090Z,15
2018-08-01T12:54:18.922Z,15
2018-08-01T12:54:59.730Z,15
2018-08-01T12:55:40.546Z,15
2018-08-01T12:56:21.298Z,15
2018-08-01T12:57:02.077Z,15
2018-08-01T12:57:42.892Z,15
2018-08-01T12:58:23.719Z,15
2018-08-01T12:59:04.523Z,15
2018-08-01T12:59:45.326Z,15
2018-08-01T13:00:26.082Z,15
2018-08-01T13:01:06.873Z,15
2018-08-01T13:01:47.656Z,15
2018-08-01T13:02:28.485Z,15
2018-08-01T13:03:09.294Z,15
2018-08-01T13:03:50.158Z,15
2018-08-01T13:04:30.937Z,15
2018-08-01T13:05:11.762Z,15
2018-08-01T13:05:52.534Z,15
2018-08-01T13:06:33.278Z,15
2018-08-01T13:07:14.125Z,15
2018-08-01T13:07:54.897Z,15
2018-08-01T13:08:35.681Z,15
2018-08-01T13:09:16.446Z,15
2018-08-01T13:09:57.220Z,15
2018-08-01T13:10:38.023Z,15
2018-08-01T13:11:18.821Z,15
2018-08-01T13:11:59.593Z,15
2018-08-01T13:12:40.418Z,15
2018-08-01T13:13:21.198Z,15
2018-08-01T13:14:02.084Z,15
2018-08-01T13:14:42.857Z,15
2018-08-01T13:15:23.635Z,15
2018-08-01T13:16:04.410Z,15
2018-08-01T13:16:45.164Z,15
2018-08-01T13:17:26.025Z,15
2018-08-01T13:18:06.932Z,15
2018-08-01T13:18:47.740Z,15
2018-08-01T13:19:28.520Z,15
2018-08-01T13:20:09.317Z,15
2018-08-01T13:20:50.093Z,15
2018-08-01T13:21:30.894Z,15
2018-08-01T13:22:11.643Z,15
2018-08-01T13:22:52.398Z,15
2018-08-01T13:23:33.248Z,15
2018-08-01T13:24:14.102Z,15
2018-08-01T13:24:54.984Z,15
2018-08-01T13:25:35.721Z,15
2018-08-01T13:26:16.477Z,15
2018-08-01T13:26:57.219Z,15
2018-08-01T13:27:37.955Z,15
2018-08-01T13:28:18.804Z,15
2018-08-01T13:28:59.606Z,15
2018-08-01T13:29:40.437Z,15
2018-08-01T13:30:21.242Z,15
2018-08-01T13:31:02.092Z,15
2018-08-01T13:31:42.908Z,15
2018-08-01T13:32:23.663Z,15
2018-08-01T13:33:04.399Z,15
2018-08-01T13:33:45.147Z,15
2018-08-01T13:34:25.963Z,15
2018-08-01T13:35:06.776Z,15
2018-08-01T13:35:47.606Z,15
2018-08-01T13:36:28.391Z,15
2018-08-01T13:37:09.139Z,15
2018-08-01T13:37:49.991Z,15
2018-08-01T13:38:30.829Z,15
2018-08-01T13:39:11.580Z,15
2018-08-01T13:39:52.317Z,15
2018-08-01T13:40:33.061Z,15
2018-08-01T13:41:13.906Z,15
2018-08-01T13:41:54.697Z,15
2018-08-01T13:42:35.451Z,15
2018-08-01T13:43:16.249Z,15
2018-08-01T13:43:57.071Z,15
2018-08-01T13:44:37.901Z,15
2018-08-01T13:45:18.726Z,15
2018-08-01T13:45:59.499Z,15
2018-08-01T13:46:40.306Z,15
2018-08-01T13:47:21.141Z,15
2018-08-01T13:48:01.881Z,15
2018-08-01T13:48:42.635Z,15
2018-08-01T13:49:23.428Z,15
2018-08-01T13:50:04.195Z,15
2018-08-01T13:50:45.059Z,15
2018-08-01T13:51:25.931Z,15
2018-08-01T13:52:06.643Z,15
2018-08-01T13:52:47.515Z,15
2018-08-01T13:53:28.263Z,15
2018-08-01T13:54:09.079Z,15
2018-08-01T13:54:49.916Z,15
2018-08-01T13:55:30.661Z,15
2018-08-01T13:56:11.483Z,15
2018-08-01T13:56:52.352Z,15
2018-08-01T13:57:33.207Z,15
2018-08-01T13:58:13.987Z,15
2018-08-01T13:58:54.729Z,15
2018-08-01T13:59:35.513Z,15
2018-08-01T14:00:16.232Z,15
2018-08-01T14:00:57.035Z,15
2018-08-01T14:01:37.901Z,15
2018-08-01T14:02:18.718Z,15
2018-08-01T14:02:59.492Z,15
2018-08-01T14:03:40.284Z,15
2018-08-01T14:04:21.107Z,15
2018-08-01T14:05:01.935Z,15
2018-08-01T14:05:42.710Z,15
2018-08-01T14:06:23.457Z,15
2018-08-01T14:07:04.252Z,15
2018-08-01T14:07:45.068Z,15
2018-08-01T14:08:25.930Z,15
2018-08-01T14:09:06.715Z,15
2018-08-01T14:09:47.470Z,15
2018-08-01T14:10:28.225Z,15
2018-08-01T14:11:09.005Z,15
2018-08-01T14:11:49.833Z,10
2018-08-01T14:12:30.674Z,10
2018-08-01T14:13:11.447Z,10
2018-08-01T14:13:52.271Z,10
2018-08-01T14:14:33.120Z,10
2018-08-01T14:15:13.891Z,10
2018-08-01T14:15:54.739Z,10
2018-08-01T14:16:35.478Z,10
2018-08-01T14:17:16.354Z,10
2018-08-01T14:17:57.193Z,10
2018-08-01T14:18:37.965Z,10
2018-08-01T14:19:18.837Z,10
2018-08-01T14:19:59.575Z,10
2018-08-01T14:20:40.363Z,10
2018-08-01T14:21:21.144Z,10
2018-08-01T14:22:01.918Z,10
2018-08-01T14:22:42.706Z,10
2018-08-01T14:23:23.546Z,10
2018-08-01T14:24:04.368Z,10
2018-08-01T14:24:45.128Z,10
2018-08-01T14:25:25.872Z,10
2018-08-01T14:26:06.615Z,10
2018-08-01T14:26:47.435Z,10
2018-08-01T14:27:28.308Z,10
2018-08-01T14:28:09.080Z,10
2018-08-01T14:28:49.903Z,10
2018-08-01T14:29:30.717Z,10
2018-08-01T14:30:11.538Z,10
2018-08-01T14:30:52.359Z,10
2018-08-01T14:31:33.116Z,10
2018-08-01T14:32:13.873Z,10
2018-08-01T14:32:54.645Z,10
2018-08-01T14:33:35.555Z,10
2018-08-01T14:34:16.416Z,10
2018-08-01T14:34:57.241Z,10
2018-08-01T14:35:38.087Z,10
2018-08-01T14:36:18.825Z,10
2018-08-01T14:36:59.586Z,10
2018-08-01T14:37:40.414Z,10
2018-08-01T14:38:21.283Z,10
2018-08-01T14:39:02.033Z,10
2018-08-01T14:39:42.770Z,10
2018-08-01T14:40:23.599Z,10
2018-08-01T14:41:04.418Z,10
2018-08-01T14:41:45.261Z,10
2018-08-01T14:42:26.013Z,10
2018-08-01T14:43:06.777Z,10
2018-08-01T14:43:47.569Z,10
2018-08-01T14:44:28.351Z,10
2018-08-01T14:45:09.230Z,10
2018-08-01T14:45:50.050Z,10
2018-08-01T14:46:30.833Z,10
2018-08-01T14:47:11.601Z,10
2018-08-01T14:47:52.452Z,10
2018-08-01T14:48:33.295Z,10
2018-08-01T14:49:14.049Z,10
2018-08-01T14:49:54.807Z,10
2018-08-01T14:50:35.628Z,10
2018-08-01T14:51:16.443Z,10
2018-08-01T14:51:57.201Z,10
2018-08-01T14:52:37.955Z,10
2018-08-01T14:53:18.724Z,10
2018-08-01T14:53:59.580Z,10
2018-08-01T14:54:40.384Z,10
2018-08-01T14:55:21.169Z,10
2018-08-01T14:56:01.960Z,10
2018-08-01T14:56:42.786Z,10
2018-08-01T14:57:23.652Z,10
2018-08-01T14:58:04.363Z,10
2018-08-01T14:58:45.107Z,10
2018-08-01T14:59:25.905Z,10
2018-08-01T15:00:06.812Z,10
2018-08-01T15:00:47.643Z,10
2018-08-01T15:01:28.481Z,10
2018-08-01T15:02:09.201Z,10
2018-08-01T15:02:49.965Z,10
2018-08-01T15:03:30.757Z,10
2018-08-01T15:04:11.624Z,10
2018-08-01T15:04:52.401Z,10
2018-08-01T15:05:33.191Z,10
2018-08-01T15:06:14.026Z,10
2018-08-01T15:06:54.878Z,10
2018-08-01T15:07:35.703Z,10
2018-08-01T15:08:16.491Z,10
2018-08-01T15:08:57.273Z,10
2018-08-01T15:09:38.143Z,10
2018-08-01T15:10:18.935Z,10
2018-08-01T15:10:59.695Z,10
2018-08-01T15:11:40.431Z,10
2018-08-01T15:12:21.216Z,10
2018-08-01T15:13:02.101Z,10
2018-08-01T15:13:42.859Z,10
2018-08-01T15:14:24.077Z,10
2018-08-01T15:15:04.927Z,10
2018-08-01T15:15:45.720Z,10
2018-08-01T15:16:26.582Z,10
2018-08-01T15:17:07.565Z,10
2018-08-01T15:17:48.083Z,10
2018-08-01T15:18:28.843Z,10
2018-08-01T15:19:09.681Z,10
2018-08-01T15:19:50.566Z,10
2018-08-01T15:20:31.383Z,10
2018-08-01T15:21:12.156Z,10
2018-08-01T15:21:52.942Z,10
2018-08-01T15:22:33.773Z,10
2018-08-01T15:23:14.587Z,10
2018-08-01T15:23:55.336Z,10
2018-08-01T15:24:36.108Z,10
2018-08-01T15:25:16.952Z,10
2018-08-01T15:25:57.916Z,10
2018-08-01T15:26:38.443Z,10
2018-08-01T15:27:19.231Z,10
2018-08-01T15:28:00.067Z,10
2018-08-01T15:28:40.880Z,10
2018-08-01T15:29:21.707Z,10
2018-08-01T15:30:02.478Z,10
2018-08-01T15:30:43.246Z,10
2018-08-01T15:31:24.124Z,10
2018-08-01T15:32:04.877Z,10
2018-08-01T15:32:45.610Z,10
2018-08-01T15:33:26.417Z,10
2018-08-01T15:34:07.099Z,10
2018-08-01T15:34:47.936Z,10
2018-08-01T15:35:28.765Z,10
2018-08-01T15:36:09.568Z,10
2018-08-01T15:36:50.348Z,10
2018-08-01T15:37:31.155Z,10
2018-08-01T15:38:11.907Z,10
2018-08-01T15:38:52.767Z,10
2018-08-01T15:39:33.575Z,10
2018-08-01T15:40:14.335Z,10
2018-08-01T15:40:55.194Z,10
2018-08-01T15:41:36.035Z,10
2018-08-01T15:42:16.887Z,10
2018-08-01T15:42:57.665Z,10
2018-08-01T15:43:38.448Z,10
2018-08-01T15:44:19.323Z,10
2018-08-01T15:44:59.991Z,10
2018-08-01T15:45:40.822Z,10
2018-08-01T15:46:21.623Z,10
2018-08-01T15:47:02.450Z,5
2018-08-01T15:47:43.201Z,10
2018-08-01T15:48:23.989Z,10
2018-08-01T15:49:04.817Z,5
2018-08-01T15:49:45.558Z,5
2018-08-01T15:50:26.334Z,5
2018-08-01T15:51:07.078Z,5
2018-08-01T15:51:47.843Z,5
2018-08-01T15:52:28.737Z,5
2018-08-01T15:53:09.630Z,5
2018-08-01T15:53:50.354Z,5
2018-08-01T15:54:31.105Z,5
2018-08-01T15:55:11.840Z,5
2018-08-01T15:55:52.684Z,5
2018-08-01T15:56:33.519Z,5
2018-08-01T15:57:14.270Z,5
2018-08-01T15:57:55.100Z,5
2018-08-01T15:58:35.983Z,5
2018-08-01T15:59:16.776Z,5
2018-08-01T15:59:57.694Z,5
2018-08-01T16:00:38.394Z,5
2018-08-01T16:01:19.141Z,5
2018-08-01T16:02:00.019Z,5
2018-08-01T16:02:40.748Z,5
2018-08-01T16:03:21.491Z,5
2018-08-01T16:04:02.264Z,5
2018-08-01T16:04:43.036Z,5
2018-08-01T16:05:23.909Z,5
2018-08-01T16:06:04.691Z,5
2018-08-01T16:06:45.588Z,5
2018-08-01T16:07:26.429Z,5
2018-08-01T16:08:07.198Z,5
2018-08-01T16:08:48.053Z,5
2018-08-01T16:09:28.775Z,5
2018-08-01T16:10:09.611Z,5
2018-08-01T16:10:50.431Z,5
2018-08-01T16:11:31.272Z,5
2018-08-01T16:12:12.095Z,5
2018-08-01T16:12:52.997Z,5
2018-08-01T16:13:33.758Z,5
2018-08-01T16:14:14.498Z,5
2018-08-01T16:14:55.341Z,5
2018-08-01T16:15:36.113Z,5
2018-08-01T16:16:16.855Z,5
2018-08-01T16:16:57.600Z,5
2018-08-01T16:17:38.396Z,5
2018-08-01T16:18:19.223Z,5
2018-08-01T16:19:00.038Z,5
2018-08-01T16:19:40.845Z,5
2018-08-01T16:20:21.575Z,5
2018-08-01T16:21:02.315Z,5
2018-08-01T16:21:43.117Z,5
2018-08-01T16:22:23.970Z,5
2018-08-01T16:23:04.790Z,5
2018-08-01T16:23:45.543Z,5
2018-08-01T16:24:26.392Z,5
2018-08-01T16:25:07.188Z,5
2018-08-01T16:25:47.989Z,5
2018-08-01T16:26:28.751Z,5
2018-08-01T16:27:09.493Z,5
2018-08-01T16:27:50.235Z,5
2018-08-01T16:28:31.097Z,5
2018-08-01T16:29:11.894Z,5
2018-08-01T16:29:52.728Z,5
2018-08-01T16:30:33.539Z,5
2018-08-01T16:31:14.279Z,5
2018-08-01T16:31:55.115Z,5
2018-08-01T16:32:36.108Z,5
2018-08-01T16:33:16.858Z,5
2018-08-01T16:33:57.591Z,5
2018-08-01T16:34:38.319Z,5
2018-08-01T16:35:19.250Z,5
2018-08-01T16:36:00.087Z,5
2018-08-01T16:36:40.891Z,5
2018-08-01T16:37:21.682Z,5
2018-08-01T16:38:02.485Z,5
2018-08-01T16:38:43.383Z,5
2018-08-01T16:39:24.176Z,5
2018-08-01T16:40:04.899Z,5
2018-08-01T16:40:45.944Z,5
2018-08-01T16:41:26.795Z,5
2018-08-01T16:42:07.637Z,5
2018-08-01T16:42:48.575Z,5
2018-08-01T16:43:29.395Z,5
2018-08-01T16:44:10.267Z,5